createdAt,value
2018-02-21T00:00:01.326Z,-0.6
2018-02-21T00:05:02.162Z,-0.6
2018-02-21T00:10:01.269Z,-0.9
2018-02-21T00:15:01.575Z,-1
2018-02-21T00:20:01.244Z,-1
2018-02-21T00:25:01.461Z,-1
2018-02-21T00:30:02.128Z,-1.4
2018-02-21T00:35:02.028Z,-1.6
2018-02-21T00:40:01.886Z,-1.6
2018-02-21T00:45:01.248Z,-1.8
2018-02-21T00:50:02.693Z,-1.8
2018-02-21T00:55:02.184Z,-2
2018-02-21T01:00:01.338Z,-2
2018-02-21T01:05:01.453Z,-2
2018-02-21T01:10:02.542Z,-2.3
2018-02-21T01:15:02.010Z,-2.3
2018-02-21T01:20:01.355Z,-2.3
2018-02-21T01:25:03.276Z,-2.5
2018-02-21T01:30:01.452Z,-2.5
2018-02-21T01:35:01.847Z,-2.6
2018-02-21T01:40:01.936Z,-2.7
2018-02-21T01:45:02.320Z,-2.7
2018-02-21T01:50:02.180Z,-2.7
2018-02-21T01:55:01.176Z,-2.8
2018-02-21T02:00:01.442Z,-2.8
2018-02-21T02:05:01.644Z,-2.8
2018-02-21T02:10:01.577Z,-2.8
2018-02-21T02:15:01.976Z,-2.8
2018-02-21T02:20:02.177Z,-2.8
2018-02-21T02:25:01.925Z,-2.8
2018-02-21T02:30:02.092Z,-2.8
2018-02-21T02:35:01.256Z,-2.8
2018-02-21T02:40:02.594Z,-2.8
2018-02-21T02:45:01.658Z,-2.8
2018-02-21T02:50:01.569Z,-2.8
2018-02-21T02:55:01.571Z,-2.8
2018-02-21T03:00:02.331Z,-3.3
2018-02-21T03:05:01.788Z,-3.2
2018-02-21T03:10:01.849Z,-3.2
2018-02-21T03:15:01.526Z,-3.2
2018-02-21T03:20:02.607Z,-3.2
2018-02-21T03:25:01.846Z,-3.2
2018-02-21T03:30:02.190Z,-3.2
2018-02-21T03:35:01.612Z,-3.2
2018-02-21T03:40:02.127Z,-3.2
2018-02-21T03:45:01.291Z,-3.2
2018-02-21T03:50:02.025Z,-3.2
2018-02-21T03:55:01.524Z,-3.2
2018-02-21T04:00:02.245Z,-3.3
2018-02-21T04:05:02.121Z,-3.4
2018-02-21T04:10:02.026Z,-3.4
2018-02-21T04:15:01.820Z,-3.4
2018-02-21T04:20:02.134Z,-3.4
2018-02-21T04:25:01.888Z,-3.4
2018-02-21T04:30:02.116Z,-3.4
2018-02-21T04:35:02.069Z,-3.4
2018-02-21T04:40:01.515Z,-3.6
2018-02-21T04:45:01.947Z,-3.6
2018-02-21T04:50:01.368Z,-3.5
2018-02-21T04:55:02.111Z,-3.4
2018-02-21T05:00:01.702Z,-3.4
2018-02-21T05:05:01.883Z,-3.4
2018-02-21T05:10:01.947Z,-3.4
2018-02-21T05:15:02.041Z,-3.4
2018-02-21T05:20:01.990Z,-3.4
2018-02-21T05:25:01.695Z,-2.9
2018-02-21T05:30:01.968Z,-2.9
2018-02-21T05:35:01.835Z,-2.9
2018-02-21T05:40:02.018Z,-2.6
2018-02-21T05:45:01.982Z,-2.6
2018-02-21T05:50:01.203Z,-2.6
2018-02-21T05:55:01.200Z,-2.4
2018-02-21T06:00:01.932Z,-2.3
2018-02-21T06:05:01.269Z,-2.2
2018-02-21T06:10:01.294Z,-2.2
2018-02-21T06:15:02.354Z,-2.2
2018-02-21T06:20:01.474Z,-2.2
2018-02-21T06:25:01.683Z,-2.2
2018-02-21T06:30:01.859Z,-1.9
2018-02-21T06:35:02.550Z,-1.9
2018-02-21T06:40:01.272Z,-1.9
2018-02-21T06:45:01.604Z,-1.9
2018-02-21T06:50:01.743Z,-1.9
2018-02-21T06:55:01.824Z,-1.7
2018-02-21T07:00:01.349Z,-1.7
2018-02-21T07:05:02.046Z,-1.7
2018-02-21T07:10:01.601Z,-1.6
2018-02-21T07:15:01.982Z,-1.6
2018-02-21T07:20:01.921Z,-1.6
2018-02-21T07:25:02.044Z,-1.5
2018-02-21T07:30:02.177Z,-1.5
2018-02-21T07:35:01.186Z,-1.4
2018-02-21T07:40:01.675Z,-1.4
2018-02-21T07:45:01.909Z,-1.4
2018-02-21T07:50:01.276Z,-1.4
2018-02-21T07:55:02.390Z,-1.1
2018-02-21T08:00:01.664Z,-1.1
2018-02-21T08:05:01.332Z,-1.1
2018-02-21T08:10:01.905Z,-1.1
2018-02-21T08:15:01.495Z,-1.1
2018-02-21T08:20:01.477Z,-1.1
2018-02-21T08:25:01.434Z,-1.1
2018-02-21T08:30:02.146Z,-1.1
2018-02-21T08:35:01.995Z,-1.1
2018-02-21T08:40:01.347Z,-0.5
2018-02-21T08:45:02.664Z,-0.4
2018-02-21T08:50:01.691Z,-0.4
2018-02-21T08:55:01.632Z,-0.4
2018-02-21T09:00:02.757Z,-0.4
2018-02-21T09:05:01.181Z,-0.4
2018-02-21T09:10:01.799Z,-0.4
2018-02-21T09:15:01.208Z,-0.4
2018-02-21T09:20:01.773Z,0.5
2018-02-21T09:25:01.926Z,0.5
2018-02-21T09:30:01.255Z,0.5
2018-02-21T09:35:01.865Z,0.5
2018-02-21T09:40:02.158Z,0.5
2018-02-21T09:45:01.169Z,1.2
2018-02-21T09:50:02.620Z,1.2
2018-02-21T09:55:01.897Z,1.2
2018-02-21T10:00:01.396Z,1.2
2018-02-21T10:05:02.440Z,1.2
2018-02-21T10:10:01.849Z,1.2
2018-02-21T10:15:01.362Z,1.2
2018-02-21T10:20:01.407Z,1.2
2018-02-21T10:25:02.640Z,1.2
2018-02-21T10:30:02.129Z,1.2
2018-02-21T10:35:01.229Z,1.2
2018-02-21T10:40:01.365Z,1.2
2018-02-21T10:45:02.206Z,1.2
2018-02-21T10:50:01.327Z,3.2
2018-02-21T10:55:01.350Z,3.2
2018-02-21T11:00:01.706Z,3.2
2018-02-21T11:05:02.142Z,3.2
2018-02-21T11:10:01.347Z,3.2
2018-02-21T11:15:01.616Z,3.2
2018-02-21T11:20:01.237Z,3.1
2018-02-21T11:25:01.904Z,3.1
2018-02-21T11:30:01.384Z,3.1
2018-02-21T11:35:01.919Z,3.1
2018-02-21T11:40:02.512Z,3.1
2018-02-21T11:45:02.056Z,3.1
2018-02-21T11:50:01.687Z,3.1
2018-02-21T11:55:01.976Z,3.1
2018-02-21T12:00:02.422Z,3.1
2018-02-21T12:05:02.427Z,3.3
2018-02-21T12:10:01.640Z,3.3
2018-02-21T12:15:01.504Z,3.3
2018-02-21T12:20:01.909Z,3.3
2018-02-21T12:25:02.222Z,3.3
2018-02-21T12:30:02.028Z,3.3
2018-02-21T12:35:01.339Z,3.3
2018-02-21T12:40:02.104Z,3.3
2018-02-21T12:45:01.350Z,3.5
2018-02-21T12:50:01.725Z,3.5
2018-02-21T12:55:01.432Z,3.5
2018-02-21T13:00:02.577Z,3.7
2018-02-21T13:05:02.264Z,3.7
2018-02-21T13:10:01.889Z,3.7
2018-02-21T13:15:01.987Z,3.7
2018-02-21T13:20:02.066Z,3.7
2018-02-21T13:25:01.845Z,3.7
2018-02-21T13:30:01.403Z,4.6
2018-02-21T13:35:02.092Z,4.6
2018-02-21T13:40:01.423Z,4.6
2018-02-21T13:45:01.535Z,4.7
2018-02-21T13:50:01.734Z,4.7
2018-02-21T13:55:02.684Z,4.4
2018-02-21T14:00:02.027Z,4.4
2018-02-21T14:05:01.583Z,4.4
2018-02-21T14:10:02.611Z,4.3
2018-02-21T14:15:02.402Z,4.3
2018-02-21T14:20:01.469Z,4.3
2018-02-21T14:25:01.990Z,5.1
2018-02-21T14:30:02.637Z,5.2
2018-02-21T14:35:02.022Z,5.2
2018-02-21T14:40:02.054Z,5.2
2018-02-21T14:45:02.471Z,5.2
2018-02-21T14:50:01.712Z,5.2
2018-02-21T14:55:01.697Z,5.2
2018-02-21T15:00:01.386Z,5.2
2018-02-21T15:05:01.597Z,5.2
2018-02-21T15:10:01.683Z,5.2
2018-02-21T15:15:01.972Z,5.2
2018-02-21T15:20:02.082Z,5.2
2018-02-21T15:25:01.744Z,5.2
2018-02-21T15:30:01.990Z,4
2018-02-21T15:35:02.345Z,4
2018-02-21T15:40:02.134Z,4
2018-02-21T15:45:01.800Z,4
2018-02-21T15:50:01.561Z,4.1
2018-02-21T15:55:02.448Z,4.1
2018-02-21T16:00:01.544Z,4.1
2018-02-21T16:05:01.839Z,4.1
2018-02-21T16:10:02.035Z,4.1
2018-02-21T16:15:02.185Z,4.1
2018-02-21T16:20:02.048Z,4.1
2018-02-21T16:25:01.325Z,4.1
2018-02-21T16:30:01.680Z,4.1
2018-02-21T16:35:02.374Z,4.1
2018-02-21T16:40:01.365Z,4.1
2018-02-21T16:45:02.055Z,4.1
2018-02-21T16:50:01.307Z,4.1
2018-02-21T16:55:01.694Z,4.1
2018-02-21T17:00:02.152Z,4.1
2018-02-21T17:05:01.578Z,4.1
2018-02-21T17:10:02.399Z,1.3
2018-02-21T17:15:01.704Z,1.3
2018-02-21T17:20:01.915Z,1.3
2018-02-21T17:25:01.721Z,1.3
2018-02-21T17:30:02.289Z,1.3
2018-02-21T17:35:01.788Z,1.3
2018-02-21T17:40:01.445Z,1.3
2018-02-21T17:45:02.378Z,1.3
2018-02-21T17:50:01.781Z,1.3
2018-02-21T17:55:01.315Z,1.3
2018-02-21T18:00:01.330Z,1.3
2018-02-21T18:05:01.911Z,1.3
2018-02-21T18:10:01.301Z,1.3
2018-02-21T18:15:01.993Z,1.3
2018-02-21T18:20:02.763Z,1.3
2018-02-21T18:25:01.913Z,1.3
2018-02-21T18:30:01.558Z,1.3
2018-02-21T18:35:01.506Z,1.3
2018-02-21T18:40:02.437Z,1.3
2018-02-21T18:45:01.459Z,1.3
2018-02-21T18:50:01.898Z,1.3
2018-02-21T18:55:02.076Z,1.3
2018-02-21T19:00:02.295Z,-1.2
2018-02-21T19:05:02.269Z,-1.2
2018-02-21T19:10:01.772Z,-1.2
2018-02-21T19:15:02.517Z,-1.2
2018-02-21T19:20:02.186Z,-1.2
2018-02-21T19:25:02.046Z,-1.2
2018-02-21T19:30:01.189Z,-1.2
2018-02-21T19:35:01.621Z,-1.2
2018-02-21T19:40:02.209Z,-1.2
2018-02-21T19:45:02.193Z,-1.2
2018-02-21T19:50:01.620Z,-1.2
2018-02-21T19:55:02.565Z,-1.2
2018-02-21T20:00:02.075Z,-1.2
2018-02-21T20:05:01.409Z,-1.2
2018-02-21T20:10:01.261Z,-1.2
2018-02-21T20:15:01.961Z,-1.2
2018-02-21T20:20:02.333Z,-1.2
2018-02-21T20:25:01.871Z,-1.2
2018-02-21T20:30:02.472Z,-1.2
2018-02-21T20:35:01.454Z,-1.2
2018-02-21T20:40:02.646Z,-1.2
2018-02-21T20:45:01.557Z,-1.2
2018-02-21T20:50:01.970Z,-1.2
2018-02-21T20:55:01.372Z,-1.2
2018-02-21T21:00:01.822Z,-1.2
2018-02-21T21:05:01.953Z,-1.2
2018-02-21T21:10:02.712Z,-2.7
2018-02-21T21:15:01.551Z,-2.7
2018-02-21T21:20:02.150Z,-2.8
2018-02-21T21:25:01.524Z,-2.8
2018-02-21T21:30:01.759Z,-2.9
2018-02-21T21:35:01.223Z,-3
2018-02-21T21:40:01.933Z,-3
2018-02-21T21:45:01.294Z,-3
2018-02-21T21:50:02.131Z,-3.1
2018-02-21T21:55:01.458Z,-3.1
2018-02-21T22:00:02.310Z,-3.1
2018-02-21T22:05:01.537Z,-3.1
2018-02-21T22:10:01.482Z,-3.1
2018-02-21T22:15:01.227Z,-3.1
2018-02-21T22:20:02.063Z,-3.3
2018-02-21T22:25:01.225Z,-3.3
2018-02-21T22:30:01.613Z,-3.3
2018-02-21T22:35:02.043Z,-3.4
2018-02-21T22:40:01.390Z,-3.4
2018-02-21T22:45:01.341Z,-3.4
2018-02-21T22:50:02.391Z,-3.4
2018-02-21T22:55:01.439Z,-3.4
2018-02-21T23:00:01.842Z,-3.4
2018-02-21T23:05:02.973Z,-3.2
2018-02-21T23:10:01.862Z,-3.2
2018-02-21T23:15:02.263Z,-3
2018-02-21T23:20:02.083Z,-3
2018-02-21T23:25:01.238Z,-3
2018-02-21T23:30:01.807Z,-2.9
2018-02-21T23:35:02.082Z,-2.9
2018-02-21T23:40:02.813Z,-2.8
2018-02-21T23:45:01.284Z,-2.8
2018-02-21T23:50:01.518Z,-2.6
2018-02-21T23:55:01.365Z,-2.6
